BVX701E EGPH-EGSS
Flight info
| Callsign | BVX701E |
|---|---|
| Flight time | N/A |
| Altitude | 33000 |
| Route | GOSAM P600 FENIK L612 NAVSO DCT AKOMU DCT VAMEB UL612 LISTO |
| Aircraft | B77L/H-SDE1E2E3FGHIJ2J3J4J5M1RWXY/LB1D1 |
Departure
| Time | 2026-04-25 11:17 |
|---|---|
| Airport | Edinburgh Airport (EGPH) |
Arrival
| Time | N/A |
|---|---|
| Airport | London Stansted Airport (EGSS) |
| Time | Latitude | Longitude | Altitude | Speed | Heading |
|---|---|---|---|---|---|
| 2026-04-25 10:28 | 55.94988 | -3.34758 | 121 ft | 0 kts | 28° |
| 2026-04-25 10:58 | 55.94986 | -3.34761 | 121 ft | 3 kts | 28° |
| 2026-04-25 10:59 | 55.94965 | -3.34782 | 116 ft | 4 kts | 26° |
| 2026-04-25 10:59 | 55.94941 | -3.34793 | 116 ft | 4 kts | 345° |
| 2026-04-25 10:59 | 55.94920 | -3.34769 | 116 ft | 4 kts | 302° |
| 2026-04-25 10:59 | 55.94908 | -3.34727 | 116 ft | 4 kts | 297° |
| 2026-04-25 11:00 | 55.94905 | -3.34717 | 116 ft | 0 kts | 298° |
| 2026-04-25 11:05 | 55.94906 | -3.34719 | 121 ft | 1 kts | 298° |
| 2026-04-25 11:06 | 55.94911 | -3.34736 | 121 ft | 4 kts | 298° |
| 2026-04-25 11:06 | 55.94908 | -3.34824 | 117 ft | 7 kts | 229° |
| 2026-04-25 11:06 | 55.94883 | -3.34857 | 118 ft | 7 kts | 212° |
| 2026-04-25 11:06 | 55.94839 | -3.34903 | 117 ft | 8 kts | 208° |
| 2026-04-25 11:07 | 55.94770 | -3.34957 | 116 ft | 9 kts | 209° |
| 2026-04-25 11:07 | 55.94716 | -3.35013 | 116 ft | 9 kts | 217° |
| 2026-04-25 11:07 | 55.94703 | -3.35083 | 118 ft | 9 kts | 275° |
| 2026-04-25 11:07 | 55.94739 | -3.35231 | 118 ft | 10 kts | 296° |
| 2026-04-25 11:08 | 55.94762 | -3.35309 | 117 ft | 11 kts | 300° |
| 2026-04-25 11:08 | 55.94801 | -3.35430 | 117 ft | 12 kts | 299° |
| 2026-04-25 11:08 | 55.94842 | -3.35561 | 116 ft | 12 kts | 298° |
| 2026-04-25 11:08 | 55.94884 | -3.35700 | 116 ft | 13 kts | 298° |
| 2026-04-25 11:09 | 55.94918 | -3.35809 | 116 ft | 9 kts | 303° |
| 2026-04-25 11:09 | 55.94969 | -3.35856 | 116 ft | 7 kts | 7° |
| 2026-04-25 11:09 | 55.95018 | -3.35829 | 118 ft | 8 kts | 5° |
| 2026-04-25 11:09 | 55.95059 | -3.35886 | 119 ft | 8 kts | 304° |
| 2026-04-25 11:10 | 55.95087 | -3.35979 | 116 ft | 9 kts | 293° |
| 2026-04-25 11:10 | 55.95102 | -3.36050 | 118 ft | 10 kts | 290° |
| 2026-04-25 11:10 | 55.95133 | -3.36211 | 118 ft | 11 kts | 283° |
| 2026-04-25 11:10 | 55.95115 | -3.36337 | 118 ft | 11 kts | 241° |
| 2026-04-25 11:11 | 55.95074 | -3.36462 | 117 ft | 12 kts | 239° |
| 2026-04-25 11:11 | 55.95031 | -3.36590 | 117 ft | 13 kts | 238° |
| 2026-04-25 11:11 | 55.94984 | -3.36728 | 116 ft | 13 kts | 239° |
| 2026-04-25 11:11 | 55.94934 | -3.36873 | 116 ft | 14 kts | 239° |
| 2026-04-25 11:12 | 55.94883 | -3.37026 | 116 ft | 15 kts | 239° |
| 2026-04-25 11:12 | 55.94826 | -3.37182 | 116 ft | 15 kts | 236° |
| 2026-04-25 11:12 | 55.94773 | -3.37347 | 117 ft | 15 kts | 237° |
| 2026-04-25 11:12 | 55.94718 | -3.37510 | 119 ft | 15 kts | 239° |
| 2026-04-25 11:13 | 55.94663 | -3.37673 | 116 ft | 15 kts | 239° |
| 2026-04-25 11:13 | 55.94608 | -3.37837 | 116 ft | 15 kts | 239° |
| 2026-04-25 11:13 | 55.94553 | -3.38000 | 116 ft | 15 kts | 235° |
| 2026-04-25 11:13 | 55.94497 | -3.38163 | 116 ft | 15 kts | 239° |
| 2026-04-25 11:14 | 55.94442 | -3.38328 | 116 ft | 15 kts | 239° |
| 2026-04-25 11:14 | 55.94387 | -3.38489 | 115 ft | 15 kts | 238° |
| 2026-04-25 11:14 | 55.94333 | -3.38646 | 116 ft | 13 kts | 238° |
| 2026-04-25 11:14 | 55.94291 | -3.38767 | 117 ft | 10 kts | 238° |
| 2026-04-25 11:15 | 55.94289 | -3.38853 | 117 ft | 6 kts | 302° |
| 2026-04-25 11:15 | 55.94306 | -3.38881 | 116 ft | 3 kts | 320° |
| 2026-04-25 11:15 | 55.94336 | -3.38917 | 116 ft | 7 kts | 330° |
| 2026-04-25 11:15 | 55.94385 | -3.38963 | 114 ft | 9 kts | 345° |
| 2026-04-25 11:16 | 55.94477 | -3.38790 | 114 ft | 23 kts | 58° |
| 2026-04-25 11:16 | 55.94647 | -3.38284 | 114 ft | 71 kts | 58° |
| 2026-04-25 11:16 | 55.95021 | -3.37184 | 113 ft | 138 kts | 58° |
| 2026-04-25 11:17 | 55.95610 | -3.35466 | 514 ft | 167 kts | 57° |
| 2026-04-25 11:17 | 55.96216 | -3.33812 | 1558 ft | 153 kts | 58° |
| 2026-04-25 11:17 | 55.96909 | -3.32355 | 2305 ft | 161 kts | 41° |
| 2026-04-25 11:17 | 55.97889 | -3.31020 | 2624 ft | 194 kts | 41° |
| 2026-04-25 11:18 | 55.99003 | -3.29328 | 2945 ft | 226 kts | 40° |
| 2026-04-25 11:18 | 56.00457 | -3.27973 | 3179 ft | 254 kts | 7° |
| 2026-04-25 11:18 | 56.02173 | -3.28510 | 4094 ft | 254 kts | 328° |
| 2026-04-25 11:18 | 56.03368 | -3.30811 | 5095 ft | 254 kts | 292° |
| 2026-04-25 11:19 | 56.03591 | -3.33898 | 5785 ft | 253 kts | 260° |
| 2026-04-25 11:19 | 56.03045 | -3.36861 | 6006 ft | 259 kts | 252° |
| 2026-04-25 11:19 | 56.02458 | -3.39954 | 6001 ft | 264 kts | 255° |
| 2026-04-25 11:19 | 56.01939 | -3.43110 | 5993 ft | 263 kts | 256° |
| 2026-04-25 11:20 | 56.01450 | -3.46241 | 5991 ft | 260 kts | 256° |
| 2026-04-25 11:20 | 56.00986 | -3.49370 | 5998 ft | 262 kts | 256° |
| 2026-04-25 11:20 | 56.00528 | -3.52531 | 6005 ft | 262 kts | 257° |
| 2026-04-25 11:20 | 56.00077 | -3.55677 | 6001 ft | 261 kts | 257° |
| 2026-04-25 11:21 | 55.99630 | -3.58805 | 5996 ft | 258 kts | 257° |
| 2026-04-25 11:21 | 55.99186 | -3.61905 | 6053 ft | 258 kts | 257° |
| 2026-04-25 11:21 | 55.98738 | -3.65038 | 6731 ft | 263 kts | 257° |
| 2026-04-25 11:21 | 55.98281 | -3.68232 | 7602 ft | 270 kts | 257° |
| 2026-04-25 11:22 | 55.97814 | -3.71482 | 8647 ft | 269 kts | 257° |
| 2026-04-25 11:22 | 55.97503 | -3.73631 | 9325 ft | 269 kts | 258° |
| 2026-04-25 11:22 | 55.96867 | -3.78046 | 10424 ft | 282 kts | 258° |
| 2026-04-25 11:22 | 55.96364 | -3.81548 | 10726 ft | 309 kts | 258° |
| 2026-04-25 11:23 | 55.95802 | -3.85453 | 10965 ft | 339 kts | 257° |
| 2026-04-25 11:23 | 55.95194 | -3.89643 | 11369 ft | 362 kts | 257° |
| 2026-04-25 11:23 | 55.94552 | -3.94032 | 12308 ft | 369 kts | 257° |
| 2026-04-25 11:23 | 55.93829 | -3.98449 | 13281 ft | 373 kts | 250° |
| 2026-04-25 11:24 | 55.92511 | -4.02511 | 14196 ft | 385 kts | 233° |
| 2026-04-25 11:24 | 55.90638 | -4.05955 | 15234 ft | 390 kts | 220° |
| 2026-04-25 11:24 | 55.88428 | -4.08789 | 16258 ft | 393 kts | 214° |
| 2026-04-25 11:24 | 55.86131 | -4.11472 | 17287 ft | 397 kts | 213° |
| 2026-04-25 11:25 | 55.83832 | -4.14165 | 18215 ft | 402 kts | 214° |
| 2026-04-25 11:25 | 55.81473 | -4.16982 | 19110 ft | 406 kts | 214° |
| 2026-04-25 11:25 | 55.79124 | -4.19818 | 19940 ft | 411 kts | 214° |
| 2026-04-25 11:25 | 55.76753 | -4.22714 | 20630 ft | 419 kts | 214° |
| 2026-04-25 11:26 | 55.74252 | -4.25365 | 21169 ft | 422 kts | 201° |
| 2026-04-25 11:26 | 55.71400 | -4.26414 | 21786 ft | 429 kts | 181° |
| 2026-04-25 11:26 | 55.68403 | -4.25781 | 22690 ft | 429 kts | 165° |
| 2026-04-25 11:26 | 55.65659 | -4.23829 | 23411 ft | 434 kts | 151° |
| 2026-04-25 11:27 | 55.63016 | -4.21170 | 24071 ft | 439 kts | 149° |
| 2026-04-25 11:27 | 55.60362 | -4.18439 | 24629 ft | 445 kts | 149° |
| 2026-04-25 11:27 | 55.57659 | -4.15695 | 25237 ft | 450 kts | 150° |
| 2026-04-25 11:27 | 55.55814 | -4.13857 | 25680 ft | 452 kts | 150° |
| 2026-04-25 11:28 | 55.52171 | -4.10289 | 26640 ft | 453 kts | 151° |
| 2026-04-25 11:28 | 55.49392 | -4.07592 | 27234 ft | 459 kts | 151° |
| 2026-04-25 11:28 | 55.46583 | -4.04868 | 27706 ft | 465 kts | 151° |
| 2026-04-25 11:28 | 55.43739 | -4.02106 | 28370 ft | 467 kts | 151° |
| 2026-04-25 11:29 | 55.40896 | -3.99348 | 29028 ft | 469 kts | 151° |
| 2026-04-25 11:29 | 55.38027 | -3.96567 | 29571 ft | 472 kts | 151° |
| 2026-04-25 11:29 | 55.35133 | -3.93766 | 30030 ft | 476 kts | 151° |
| 2026-04-25 11:29 | 55.32232 | -3.90963 | 30568 ft | 477 kts | 151° |
| 2026-04-25 11:30 | 55.29324 | -3.88158 | 31159 ft | 475 kts | 152° |
| 2026-04-25 11:30 | 55.26427 | -3.85367 | 31745 ft | 474 kts | 152° |
| 2026-04-25 11:30 | 55.23530 | -3.82582 | 32122 ft | 477 kts | 152° |
| 2026-04-25 11:30 | 55.20602 | -3.79810 | 32639 ft | 478 kts | 153° |
| 2026-04-25 11:31 | 55.17642 | -3.77189 | 33191 ft | 476 kts | 154° |
| 2026-04-25 11:31 | 55.14643 | -3.74634 | 33191 ft | 480 kts | 155° |
| 2026-04-25 11:31 | 55.08670 | -3.69619 | 33204 ft | 473 kts | 155° |
| 2026-04-25 11:32 | 55.02751 | -3.64610 | 33203 ft | 472 kts | 155° |
| 2026-04-25 11:32 | 54.96892 | -3.59621 | 33210 ft | 472 kts | 155° |
| 2026-04-25 11:33 | 54.90985 | -3.54592 | 33213 ft | 472 kts | 155° |
| 2026-04-25 11:33 | 54.85088 | -3.49591 | 33212 ft | 472 kts | 155° |
| 2026-04-25 11:34 | 54.79177 | -3.44596 | 33214 ft | 471 kts | 155° |
| 2026-04-25 11:34 | 54.73287 | -3.39635 | 33220 ft | 471 kts | 155° |
| 2026-04-25 11:35 | 54.67375 | -3.34672 | 33208 ft | 472 kts | 155° |
| 2026-04-25 11:35 | 54.61472 | -3.29733 | 33209 ft | 472 kts | 155° |
| 2026-04-25 11:36 | 54.55567 | -3.24808 | 33209 ft | 472 kts | 155° |
| 2026-04-25 11:36 | 54.49684 | -3.19916 | 33193 ft | 472 kts | 155° |
| 2026-04-25 11:37 | 54.43756 | -3.15003 | 33196 ft | 474 kts | 156° |
| 2026-04-25 11:37 | 54.37810 | -3.10093 | 33208 ft | 475 kts | 156° |
| 2026-04-25 11:38 | 54.31837 | -3.05174 | 33213 ft | 476 kts | 156° |
| 2026-04-25 11:38 | 54.25856 | -3.00264 | 33211 ft | 477 kts | 156° |
| 2026-04-25 11:39 | 54.19898 | -2.95386 | 33200 ft | 477 kts | 156° |
| 2026-04-25 11:39 | 54.13883 | -2.90610 | 33206 ft | 476 kts | 159° |
| 2026-04-25 11:40 | 54.07755 | -2.86264 | 33209 ft | 476 kts | 159° |
| 2026-04-25 11:40 | 54.01650 | -2.81889 | 33276 ft | 477 kts | 159° |
| 2026-04-25 11:41 | 53.95545 | -2.77484 | 33224 ft | 476 kts | 159° |
| 2026-04-25 11:41 | 53.89427 | -2.73101 | 33208 ft | 477 kts | 159° |
| 2026-04-25 11:42 | 53.83314 | -2.68674 | 33202 ft | 478 kts | 159° |
| 2026-04-25 11:42 | 53.77229 | -2.64278 | 33205 ft | 478 kts | 159° |
| 2026-04-25 11:43 | 53.71101 | -2.59892 | 33190 ft | 478 kts | 159° |
| 2026-04-25 11:43 | 53.64978 | -2.55525 | 33194 ft | 479 kts | 159° |
| 2026-04-25 11:44 | 53.58809 | -2.51132 | 33198 ft | 480 kts | 159° |
| 2026-04-25 11:44 | 53.52647 | -2.46741 | 33203 ft | 481 kts | 159° |
| 2026-04-25 11:45 | 53.46470 | -2.42355 | 33196 ft | 481 kts | 159° |
| 2026-04-25 11:45 | 53.40336 | -2.38028 | 33198 ft | 481 kts | 159° |
| 2026-04-25 11:46 | 53.34159 | -2.33684 | 33200 ft | 481 kts | 159° |
| 2026-04-25 11:46 | 53.27997 | -2.29360 | 33198 ft | 481 kts | 159° |
| 2026-04-25 11:47 | 53.21811 | -2.25055 | 33204 ft | 481 kts | 160° |
| 2026-04-25 11:47 | 53.15628 | -2.20813 | 33200 ft | 481 kts | 160° |
| 2026-04-25 11:48 | 53.09906 | -2.15157 | 33211 ft | 485 kts | 145° |
| 2026-04-25 11:48 | 53.04568 | -2.08275 | 33208 ft | 486 kts | 144° |
| 2026-04-25 11:49 | 52.99189 | -2.01501 | 33196 ft | 486 kts | 145° |
| 2026-04-25 11:49 | 52.93732 | -1.94864 | 33209 ft | 486 kts | 146° |
| 2026-04-25 11:50 | 52.88246 | -1.88263 | 33210 ft | 487 kts | 146° |
| 2026-04-25 11:50 | 52.82750 | -1.81655 | 33242 ft | 488 kts | 146° |
| 2026-04-25 11:51 | 52.79983 | -1.78332 | 32287 ft | 500 kts | 146° |
| 2026-04-25 11:51 | 52.77160 | -1.74946 | 31334 ft | 499 kts | 146° |
| 2026-04-25 11:51 | 52.74346 | -1.71603 | 30469 ft | 495 kts | 148° |
| 2026-04-25 11:51 | 52.71441 | -1.68665 | 29673 ft | 486 kts | 153° |
| 2026-04-25 11:52 | 52.68465 | -1.66110 | 28961 ft | 478 kts | 155° |
| 2026-04-25 11:52 | 52.65529 | -1.63748 | 28310 ft | 471 kts | 156° |
| 2026-04-25 11:52 | 52.62600 | -1.61400 | 27660 ft | 465 kts | 156° |
| 2026-04-25 11:52 | 52.59720 | -1.59044 | 27008 ft | 460 kts | 155° |
| 2026-04-25 11:53 | 52.56881 | -1.56671 | 26367 ft | 455 kts | 155° |
| 2026-04-25 11:53 | 52.54081 | -1.54296 | 25748 ft | 450 kts | 154° |
| 2026-04-25 11:53 | 52.51312 | -1.51932 | 25130 ft | 446 kts | 154° |
| 2026-04-25 11:53 | 52.48575 | -1.49590 | 24589 ft | 442 kts | 154° |
| 2026-04-25 11:54 | 52.45856 | -1.47268 | 23981 ft | 438 kts | 154° |
| 2026-04-25 11:54 | 52.43163 | -1.44975 | 23288 ft | 435 kts | 154° |
| 2026-04-25 11:54 | 52.37844 | -1.40461 | 22074 ft | 426 kts | 154° |
| 2026-04-25 11:55 | 52.35219 | -1.38237 | 21510 ft | 422 kts | 154° |
| 2026-04-25 11:55 | 52.32626 | -1.36043 | 20959 ft | 418 kts | 154° |
| 2026-04-25 11:55 | 52.30050 | -1.33868 | 20402 ft | 415 kts | 154° |
| 2026-04-25 11:55 | 52.27516 | -1.31651 | 19985 ft | 411 kts | 152° |
| 2026-04-25 11:56 | 52.25036 | -1.29315 | 19598 ft | 414 kts | 151° |
| 2026-04-25 11:56 | 52.22539 | -1.26914 | 19192 ft | 417 kts | 150° |
| 2026-04-25 11:56 | 52.20040 | -1.24516 | 18770 ft | 417 kts | 151° |
| 2026-04-25 11:56 | 52.17548 | -1.22143 | 18307 ft | 414 kts | 151° |
| 2026-04-25 11:57 | 52.15059 | -1.19791 | 17841 ft | 411 kts | 151° |
| 2026-04-25 11:57 | 52.13425 | -1.18253 | 17548 ft | 409 kts | 151° |
| 2026-04-25 11:57 | 52.10964 | -1.15943 | 17108 ft | 406 kts | 151° |
| 2026-04-25 11:57 | 52.08529 | -1.13663 | 16694 ft | 403 kts | 151° |
| 2026-04-25 11:58 | 52.06111 | -1.11404 | 16272 ft | 400 kts | 151° |
| 2026-04-25 11:58 | 52.03706 | -1.09155 | 15868 ft | 395 kts | 150° |
| 2026-04-25 11:58 | 52.01582 | -1.06399 | 15423 ft | 395 kts | 131° |
| 2026-04-25 11:58 | 52.00193 | -1.02553 | 15133 ft | 397 kts | 111° |
| 2026-04-25 11:59 | 51.99558 | -0.98208 | 14898 ft | 397 kts | 95° |
| 2026-04-25 11:59 | 51.99515 | -0.93813 | 14663 ft | 394 kts | 89° |
| 2026-04-25 11:59 | 51.99551 | -0.89363 | 14413 ft | 394 kts | 89° |
| 2026-04-25 12:00 | 51.99618 | -0.80450 | 13977 ft | 391 kts | 89° |
| 2026-04-25 12:00 | 51.99634 | -0.76104 | 13730 ft | 389 kts | 90° |
| 2026-04-25 12:00 | 51.99638 | -0.67372 | 13277 ft | 385 kts | 90° |
| 2026-04-25 12:01 | 51.99632 | -0.63034 | 13060 ft | 383 kts | 90° |
| 2026-04-25 12:01 | 51.99623 | -0.58739 | 12849 ft | 381 kts | 90° |
| 2026-04-25 12:01 | 51.99611 | -0.54429 | 12636 ft | 380 kts | 90° |
| 2026-04-25 12:01 | 51.99600 | -0.50150 | 12439 ft | 378 kts | 90° |
| 2026-04-25 12:02 | 51.99573 | -0.42150 | 12132 ft | 327 kts | 90° |
| 2026-04-25 12:02 | 51.99557 | -0.38601 | 11848 ft | 304 kts | 90° |
| 2026-04-25 12:02 | 51.99522 | -0.35214 | 11227 ft | 296 kts | 91° |
| 2026-04-25 12:03 | 51.99481 | -0.31900 | 10520 ft | 293 kts | 90° |
| 2026-04-25 12:03 | 51.99440 | -0.28604 | 9775 ft | 291 kts | 90° |
| 2026-04-25 12:03 | 51.99400 | -0.25344 | 9012 ft | 287 kts | 90° |
| 2026-04-25 12:03 | 51.99359 | -0.22124 | 8293 ft | 284 kts | 91° |
| 2026-04-25 12:04 | 51.99319 | -0.18911 | 7705 ft | 286 kts | 91° |
| 2026-04-25 12:04 | 51.99278 | -0.15712 | 7494 ft | 283 kts | 91° |
| 2026-04-25 12:04 | 51.99236 | -0.12497 | 7337 ft | 284 kts | 91° |
| 2026-04-25 12:04 | 51.99319 | -0.09329 | 7027 ft | 279 kts | 79° |
| 2026-04-25 12:05 | 51.99820 | -0.06301 | 6668 ft | 276 kts | 72° |